Time;durP1;ratioP1;P1;durP2;ratioP2;P2;SDS_P1;SDS_P2;PMS_P1;PMS_P2;Temp;Humidity;BMP_temperature;BMP_pressure;BME280_temperature;BME280_humidity;BME280_pressure;Samples;Min_cycle;Max_cycle;Signal;HPM_P1;HPM_P2
2022/09/10 00:04:27;;;;;;;9.00;5.60;;;;;;;;;;10053381;28;20073;-68
2022/09/10 00:09:20;;;;;;;13.95;6.22;;;;;;;;;;10058980;28;20458;-67
2022/09/10 00:14:20;;;;;;;10.00;5.40;;;;;;;;;;10057162;28;20057;-68
2022/09/10 00:19:13;;;;;;;8.88;5.75;;;;;;;;;;10061757;28;20073;-67
2022/09/10 00:24:07;;;;;;;5.88;4.95;;;;;;;;;;10067510;28;20057;-67
2022/09/10 00:29:02;;;;;;;8.00;4.93;;;;;;;;;;10056278;28;20068;-68
2022/09/10 00:33:55;;;;;;;8.38;4.85;;;;;;;;;;10031637;28;20041;-69
2022/09/10 00:38:50;;;;;;;7.38;6.53;;;;;;;;;;10028357;28;20049;-69
2022/09/10 00:44:01;;;;;;;19.60;6.63;;;;;;;;;;10059140;28;20088;-70
2022/09/10 00:48:57;;;;;;;7.00;5.95;;;;;;;;;;10060591;28;20069;-69
2022/09/10 00:53:50;;;;;;;10.52;6.30;;;;;;;;;;10063724;28;20424;-69
2022/09/10 00:58:46;;;;;;;6.82;6.07;;;;;;;;;;10017098;28;20070;-69
2022/09/10 01:03:40;;;;;;;7.63;5.72;;;;;;;;;;10049270;28;20053;-67
2022/09/10 01:08:33;;;;;;;8.60;6.20;;;;;;;;;;10033113;28;20447;-68
2022/09/10 01:13:57;;;;;;;9.25;5.78;;;;;;;;;;10045724;28;20042;-67
2022/09/10 01:19:20;;;;;;;8.70;6.07;;;;;;;;;;10042657;28;20468;-67
2022/09/10 01:24:41;;;;;;;13.05;6.15;;;;;;;;;;10046036;28;20133;-67
2022/09/10 01:30:07;;;;;;;9.30;5.80;;;;;;;;;;10037278;28;20057;-67
2022/09/10 01:35:23;;;;;;;9.10;6.40;;;;;;;;;;9983160;28;20053;-68
2022/09/10 01:40:17;;;;;;;7.95;6.30;;;;;;;;;;10021513;28;20051;-67
2022/09/10 01:45:13;;;;;;;6.30;5.65;;;;;;;;;;10032062;28;20563;-68
2022/09/10 01:50:13;;;;;;;9.20;7.32;;;;;;;;;;10033913;28;20108;-67
2022/09/10 01:55:50;;;;;;;8.50;6.60;;;;;;;;;;10046337;28;20050;-67
2022/09/10 02:00:48;;;;;;;9.63;6.75;;;;;;;;;;10055350;28;20037;-68
2022/09/10 02:05:43;;;;;;;7.72;6.30;;;;;;;;;;10064037;28;20064;-67
2022/09/10 02:10:51;;;;;;;12.57;7.75;;;;;;;;;;10027444;28;20080;-66
2022/09/10 02:15:48;;;;;;;;;;;;;;;;;;10038600;28;20052;-64
2022/09/10 02:20:48;;;;;;;9.93;8.23;;;;;;;;;;10039388;28;19921;-65
2022/09/10 02:25:47;;;;;;;9.75;8.75;;;;;;;;;;10046984;28;20061;-67
2022/09/10 02:30:40;;;;;;;14.52;9.27;;;;;;;;;;10020552;28;20517;-66
2022/09/10 02:35:34;;;;;;;13.32;9.05;;;;;;;;;;10014525;28;20069;-66
2022/09/10 02:40:30;;;;;;;12.35;10.00;;;;;;;;;;9996147;28;20053;-68
2022/09/10 02:45:24;;;;;;;12.27;8.82;;;;;;;;;;10003657;28;20081;-69
2022/09/10 02:50:23;;;;;;;11.05;6.20;;;;;;;;;;9991686;28;20050;-70
2022/09/10 02:55:17;;;;;;;6.65;5.82;;;;;;;;;;9991688;28;20425;-66
2022/09/10 03:00:13;;;;;;;7.35;6.50;;;;;;;;;;9996322;28;20133;-68
2022/09/10 03:05:09;;;;;;;8.05;6.70;;;;;;;;;;9998257;28;20490;-67
2022/09/10 03:10:04;;;;;;;11.63;6.05;;;;;;;;;;9993839;28;20072;-67
2022/09/10 03:15:00;;;;;;;7.00;5.85;;;;;;;;;;9999832;28;20129;-65
2022/09/10 03:19:53;;;;;;;9.07;5.88;;;;;;;;;;9999891;28;20052;-66
2022/09/10 03:24:47;;;;;;;7.18;5.35;;;;;;;;;;10005092;28;20517;-67
2022/09/10 03:29:42;;;;;;;11.48;5.53;;;;;;;;;;10028748;28;20057;-67
2022/09/10 03:34:36;;;;;;;7.22;5.35;;;;;;;;;;10047374;28;20107;-67
2022/09/10 03:39:30;;;;;;;5.88;4.75;;;;;;;;;;10042835;28;20088;-68
2022/09/10 03:44:24;;;;;;;5.40;4.90;;;;;;;;;;10017175;28;20483;-70
2022/09/10 03:49:17;;;;;;;8.05;5.00;;;;;;;;;;10021726;28;20061;-70
2022/09/10 03:54:12;;;;;;;6.55;4.93;;;;;;;;;;10024389;28;20080;-68
2022/09/10 03:59:07;;;;;;;5.50;4.55;;;;;;;;;;10039145;28;20065;-68
2022/09/10 04:04:01;;;;;;;6.72;4.35;;;;;;;;;;10020890;28;20179;-69
2022/09/10 04:08:55;;;;;;;7.38;5.07;;;;;;;;;;10019884;28;20050;-70
2022/09/10 04:13:50;;;;;;;4.63;4.18;;;;;;;;;;10047688;28;20045;-69
2022/09/10 04:18:43;;;;;;;6.30;4.85;;;;;;;;;;10050663;28;20054;-69
2022/09/10 04:23:41;;;;;;;7.55;5.45;;;;;;;;;;10023960;28;20049;-69
2022/09/10 04:28:34;;;;;;;9.57;6.60;;;;;;;;;;10059005;28;20092;-69
2022/09/10 04:33:29;;;;;;;7.40;6.65;;;;;;;;;;10018627;28;20061;-70
2022/09/10 04:38:24;;;;;;;14.70;8.68;;;;;;;;;;10033694;28;20053;-69
2022/09/10 04:43:19;;;;;;;11.77;9.25;;;;;;;;;;10023139;28;20400;-69
2022/09/10 04:48:13;;;;;;;16.30;10.07;;;;;;;;;;10031350;28;20057;-69
2022/09/10 04:53:06;;;;;;;15.15;9.95;;;;;;;;;;10023707;28;20108;-69
2022/09/10 04:58:01;;;;;;;9.05;8.15;;;;;;;;;;10023835;28;20057;-70
2022/09/10 05:02:55;;;;;;;11.20;7.80;;;;;;;;;;10035421;28;20052;-70
2022/09/10 05:07:51;;;;;;;12.07;7.32;;;;;;;;;;10029345;28;20152;-71
2022/09/10 05:12:47;;;;;;;8.23;6.72;;;;;;;;;;10040423;28;20044;-71
2022/09/10 05:17:40;;;;;;;10.50;8.02;;;;;;;;;;10031701;28;20064;-71
2022/09/10 05:22:34;;;;;;;13.32;7.07;;;;;;;;;;10032447;28;20465;-71
2022/09/10 05:27:33;;;;;;;10.15;6.60;;;;;;;;;;10036217;28;20100;-69
2022/09/10 05:32:27;;;;;;;7.30;5.50;;;;;;;;;;10024534;28;20089;-69
2022/09/10 05:37:22;;;;;;;6.05;5.45;;;;;;;;;;10004177;28;20511;-69
2022/09/10 05:42:17;;;;;;;5.35;4.85;;;;;;;;;;9996206;28;20489;-72
2022/09/10 05:47:11;;;;;;;6.32;5.25;;;;;;;;;;9998630;28;20053;-69
2022/09/10 05:52:05;;;;;;;7.03;5.80;;;;;;;;;;9996033;28;20042;-68
2022/09/10 05:56:59;;;;;;;7.82;5.80;;;;;;;;;;10011559;28;20543;-69
2022/09/10 06:01:55;;;;;;;12.68;6.05;;;;;;;;;;10003932;28;20050;-67
2022/09/10 06:06:50;;;;;;;10.25;6.30;;;;;;;;;;10007803;28;20092;-70
2022/09/10 06:11:47;;;;;;;12.07;9.18;;;;;;;;;;10007171;28;20456;-67
2022/09/10 06:16:42;;;;;;;15.17;9.00;;;;;;;;;;10011518;28;20050;-65
2022/09/10 06:21:38;;;;;;;9.15;8.25;;;;;;;;;;10000428;28;20052;-66
2022/09/10 06:26:32;;;;;;;8.88;7.82;;;;;;;;;;9991257;28;20536;-65
2022/09/10 06:31:30;;;;;;;;;;;;;;;;;;9995736;28;20065;-66
2022/09/10 06:36:27;;;;;;;10.73;7.07;;;;;;;;;;9994131;28;19922;-66
2022/09/10 06:41:21;;;;;;;13.32;7.47;;;;;;;;;;10002661;28;20043;-66
2022/09/10 06:46:21;;;;;;;10.60;7.85;;;;;;;;;;9997702;28;20109;-66
2022/09/10 06:51:35;;;;;;;12.30;7.63;;;;;;;;;;9970290;28;20047;-64
2022/09/10 06:56:29;;;;;;;13.20;9.05;;;;;;;;;;9974675;28;20560;-64
2022/09/10 07:01:25;;;;;;;8.85;7.93;;;;;;;;;;9991652;28;20069;-67
2022/09/10 07:06:24;;;;;;;24.20;9.02;;;;;;;;;;9984688;28;20049;-66
2022/09/10 07:11:25;;;;;;;11.93;9.23;;;;;;;;;;10001835;28;20054;-65
2022/09/10 07:16:22;;;;;;;14.73;9.15;;;;;;;;;;9971558;28;20051;-68
2022/09/10 07:21:18;;;;;;;17.08;9.32;;;;;;;;;;9988901;28;20056;-66
2022/09/10 07:26:14;;;;;;;15.50;9.60;;;;;;;;;;9974614;28;20412;-72
2022/09/10 07:31:16;;;;;;;13.10;8.05;;;;;;;;;;9972589;28;20422;-74
2022/09/10 07:36:13;;;;;;;16.00;8.73;;;;;;;;;;9992264;28;20047;-66
2022/09/10 07:41:10;;;;;;;18.73;9.32;;;;;;;;;;9981509;28;20063;-69
2022/09/10 07:46:11;;;;;;;13.52;10.18;;;;;;;;;;9997169;28;20126;-68
2022/09/10 07:51:12;;;;;;;11.00;7.53;;;;;;;;;;9983957;28;20117;-66
2022/09/10 07:56:08;;;;;;;18.00;9.23;;;;;;;;;;10002313;28;20065;-69
2022/09/10 08:01:07;;;;;;;12.25;9.48;;;;;;;;;;10017490;28;20456;-67
2022/09/10 08:06:07;;;;;;;15.85;8.13;;;;;;;;;;10001979;28;20054;-68
2022/09/10 08:11:18;;;;;;;15.38;8.93;;;;;;;;;;10007229;28;20060;-66
2022/09/10 08:16:21;;;;;;;15.95;7.45;;;;;;;;;;9991714;28;20058;-66
2022/09/10 08:21:17;;;;;;;15.85;8.00;;;;;;;;;;10005048;28;20834;-74
2022/09/10 08:26:12;;;;;;;14.73;7.15;;;;;;;;;;10006978;28;20060;-75
2022/09/10 08:31:11;;;;;;;12.98;7.22;;;;;;;;;;10019276;28;20056;-70
2022/09/10 08:36:53;;;;;;;11.15;5.78;;;;;;;;;;10011982;28;20045;-69
2022/09/10 08:41:58;;;;;;;9.55;5.30;;;;;;;;;;10011887;28;20563;-65
2022/09/10 08:46:56;;;;;;;8.63;5.57;;;;;;;;;;10031271;28;20049;-68
2022/09/10 08:51:56;;;;;;;11.63;4.43;;;;;;;;;;10013437;28;20112;-68
2022/09/10 08:56:52;;;;;;;4.55;1.55;;;;;;;;;;10014281;28;20479;-68
2022/09/10 09:01:55;;;;;;;5.97;1.38;;;;;;;;;;10028459;28;20535;-67
2022/09/10 09:06:53;;;;;;;;;;;;;;;;;;10021225;28;20107;-70
2022/09/10 09:12:00;;;;;;;7.50;1.60;;;;;;;;;;10036785;28;20016;-68
2022/09/10 09:17:15;;;;;;;2.90;1.38;;;;;;;;;;10041379;28;20467;-61
2022/09/10 09:22:44;;;;;;;5.40;1.33;;;;;;;;;;10042844;28;20052;-61
2022/09/10 09:27:41;;;;;;;4.45;1.63;;;;;;;;;;10035618;28;20050;-61
2022/09/10 09:32:39;;;;;;;4.25;1.65;;;;;;;;;;10042713;28;20052;-61
2022/09/10 09:37:35;;;;;;;4.13;1.38;;;;;;;;;;10031085;28;20049;-61
2022/09/10 09:43:07;;;;;;;9.70;2.35;;;;;;;;;;10018748;28;20042;-61
2022/09/10 09:48:01;;;;;;;10.50;2.10;;;;;;;;;;9881186;28;21515;-62
2022/09/10 09:52:57;;;;;;;3.95;1.70;;;;;;;;;;10005372;28;20049;-59
2022/09/10 09:58:28;;;;;;;5.78;2.25;;;;;;;;;;10044904;28;20567;-62
2022/09/10 10:03:25;;;;;;;8.90;2.17;;;;;;;;;;10046101;28;20049;-62
2022/09/10 10:08:36;;;;;;;6.60;1.83;;;;;;;;;;10026670;28;20489;-59
2022/09/10 10:13:56;;;;;;;6.45;1.80;;;;;;;;;;10028134;28;20041;-61
2022/09/10 10:18:51;;;;;;;3.15;1.70;;;;;;;;;;10001980;28;20104;-58
2022/09/10 10:23:45;;;;;;;9.57;2.30;;;;;;;;;;10037569;28;20079;-59
2022/09/10 10:28:44;;;;;;;5.32;1.70;;;;;;;;;;10039287;28;20519;-59
2022/09/10 10:34:04;;;;;;;3.92;2.08;;;;;;;;;;10039361;28;20122;-58
2022/09/10 10:39:18;;;;;;;5.05;2.15;;;;;;;;;;10027481;28;20054;-61
2022/09/10 10:45:07;;;;;;;6.90;3.40;;;;;;;;;;10042198;28;20149;-65
2022/09/10 10:50:19;;;;;;;8.60;2.13;;;;;;;;;;9847730;28;20184;-67
2022/09/10 10:55:24;;;;;;;4.78;2.00;;;;;;;;;;10019433;28;20048;-65
2022/09/10 11:00:19;;;;;;;8.93;2.40;;;;;;;;;;10030081;28;20038;-67
2022/09/10 11:05:37;;;;;;;7.80;2.00;;;;;;;;;;10036835;28;20058;-68
2022/09/10 11:10:41;;;;;;;5.30;1.65;;;;;;;;;;10023336;28;20083;-67
2022/09/10 11:15:51;;;;;;;4.30;2.20;;;;;;;;;;10018660;28;20046;-66
2022/09/10 11:21:07;;;;;;;6.45;2.00;;;;;;;;;;10031770;28;20056;-67
2022/09/10 11:26:06;;;;;;;5.93;1.60;;;;;;;;;;10037338;28;20077;-67
2022/09/10 11:31:14;;;;;;;5.32;1.77;;;;;;;;;;10029118;28;20141;-68
2022/09/10 11:36:51;;;;;;;3.92;2.40;;;;;;;;;;10046892;28;20104;-74
2022/09/10 11:42:05;;;;;;;4.13;1.67;;;;;;;;;;10015431;28;20078;-72
2022/09/10 11:47:09;;;;;;;9.85;2.20;;;;;;;;;;10037363;28;20134;-77
2022/09/10 11:52:04;;;;;;;5.55;2.28;;;;;;;;;;10022850;28;20041;-75
2022/09/10 11:57:05;;;;;;;8.68;2.15;;;;;;;;;;10042151;28;20054;-75
2022/09/10 12:02:46;;;;;;;6.75;1.42;;;;;;;;;;10047456;28;20619;-76
2022/09/10 12:07:47;;;;;;;3.63;1.00;;;;;;;;;;9993522;28;20054;-76
2022/09/10 12:12:43;;;;;;;5.90;1.33;;;;;;;;;;10041579;28;20054;-76
2022/09/10 12:17:40;;;;;;;5.28;1.40;;;;;;;;;;10051434;28;20121;-75
2022/09/10 12:22:40;;;;;;;8.85;1.70;;;;;;;;;;10043154;28;20057;-66
2022/09/10 12:27:50;;;;;;;4.95;1.35;;;;;;;;;;10038231;28;20046;-66
2022/09/10 12:32:45;;;;;;;5.70;1.45;;;;;;;;;;10048016;28;20120;-65
2022/09/10 12:37:38;;;;;;;3.65;1.10;;;;;;;;;;10031473;28;20046;-65
2022/09/10 12:42:32;;;;;;;5.53;1.85;;;;;;;;;;10043064;28;20125;-65
2022/09/10 12:47:32;;;;;;;4.35;1.35;;;;;;;;;;10038533;28;20042;-66
2022/09/10 12:52:47;;;;;;;4.30;1.23;;;;;;;;;;10024228;28;20137;-65
2022/09/10 12:58:16;;;;;;;1.93;0.93;;;;;;;;;;10035731;28;20050;-65
2022/09/10 13:03:17;;;;;;;4.10;1.17;;;;;;;;;;10039632;28;20101;-65
2022/09/10 13:08:21;;;;;;;5.35;1.40;;;;;;;;;;10037005;28;20050;-66
2022/09/10 13:13:38;;;;;;;5.57;1.20;;;;;;;;;;10030377;28;20046;-65
2022/09/10 13:18:35;;;;;;;4.25;1.67;;;;;;;;;;10042685;28;20052;-65
2022/09/10 13:24:09;;;;;;;5.05;1.10;;;;;;;;;;10044592;28;20041;-65
2022/09/10 13:29:10;;;;;;;8.80;1.35;;;;;;;;;;10043826;28;20459;-65
2022/09/10 13:34:14;;;;;;;3.95;1.33;;;;;;;;;;10034515;28;20054;-65
2022/09/10 13:39:26;;;;;;;6.57;1.23;;;;;;;;;;10039110;28;20052;-65
2022/09/10 13:44:27;;;;;;;3.55;1.48;;;;;;;;;;10038590;28;20056;-65
2022/09/10 13:49:47;;;;;;;4.65;1.33;;;;;;;;;;10032702;28;20045;-65
2022/09/10 13:54:46;;;;;;;6.78;1.60;;;;;;;;;;10038972;28;20077;-64
2022/09/10 13:59:40;;;;;;;6.43;1.92;;;;;;;;;;10034981;28;20132;-64
2022/09/10 14:04:35;;;;;;;5.18;1.00;;;;;;;;;;10040285;28;20099;-64
2022/09/10 14:09:33;;;;;;;5.80;1.85;;;;;;;;;;10044061;28;20075;-64
2022/09/10 14:14:29;;;;;;;3.15;1.00;;;;;;;;;;10034304;28;20125;-65
2022/09/10 14:19:24;;;;;;;3.90;1.30;;;;;;;;;;10026874;28;20053;-65
2022/09/10 14:24:38;;;;;;;6.10;1.85;;;;;;;;;;10034010;28;20049;-63
2022/09/10 14:29:33;;;;;;;2.42;0.80;;;;;;;;;;10042865;28;20088;-63
2022/09/10 14:34:35;;;;;;;4.22;0.85;;;;;;;;;;10028872;28;20124;-64
2022/09/10 14:39:28;;;;;;;2.28;0.98;;;;;;;;;;10042344;28;20045;-64
2022/09/10 14:44:21;;;;;;;4.15;1.35;;;;;;;;;;10041509;28;20063;-64
2022/09/10 14:49:16;;;;;;;2.40;1.00;;;;;;;;;;10045547;28;20054;-64
2022/09/10 14:54:11;;;;;;;7.05;0.95;;;;;;;;;;10045373;28;20049;-64
2022/09/10 14:59:30;;;;;;;4.05;1.67;;;;;;;;;;10046665;28;20054;-64
2022/09/10 15:04:28;;;;;;;6.53;1.50;;;;;;;;;;10026376;28;20058;-64
2022/09/10 15:09:23;;;;;;;3.78;1.33;;;;;;;;;;10040481;28;20042;-64
2022/09/10 15:14:17;;;;;;;4.32;1.30;;;;;;;;;;10045026;28;20076;-64
2022/09/10 15:19:10;;;;;;;6.20;1.23;;;;;;;;;;10045523;28;20057;-65
2022/09/10 15:24:05;;;;;;;4.22;1.35;;;;;;;;;;10044724;28;20851;-65
2022/09/10 15:29:00;;;;;;;3.95;1.15;;;;;;;;;;10050094;28;20077;-64
2022/09/10 15:33:55;;;;;;;4.97;1.20;;;;;;;;;;10054561;28;20053;-65
2022/09/10 15:38:51;;;;;;;4.30;1.35;;;;;;;;;;10048358;28;20053;-64
2022/09/10 15:43:45;;;;;;;8.27;1.50;;;;;;;;;;10030904;28;20057;-64
2022/09/10 15:48:38;;;;;;;8.50;1.85;;;;;;;;;;10037634;28;20052;-64
2022/09/10 15:53:33;;;;;;;2.97;2.08;;;;;;;;;;10049664;28;20558;-64
2022/09/10 15:58:27;;;;;;;3.50;1.17;;;;;;;;;;10044787;28;20058;-64
2022/09/10 16:03:22;;;;;;;3.50;1.13;;;;;;;;;;10040482;28;20121;-64
2022/09/10 16:08:16;;;;;;;6.85;1.45;;;;;;;;;;10036285;28;20386;-65
2022/09/10 16:13:10;;;;;;;7.45;1.58;;;;;;;;;;10045144;28;20390;-68
2022/09/10 16:18:05;;;;;;;2.95;1.30;;;;;;;;;;10035430;28;20100;-69
2022/09/10 16:22:59;;;;;;;1.98;1.15;;;;;;;;;;10040594;28;20078;-69
2022/09/10 16:27:53;;;;;;;7.13;1.33;;;;;;;;;;10037787;28;20570;-67
2022/09/10 16:32:47;;;;;;;4.00;1.13;;;;;;;;;;10035375;28;20096;-67
2022/09/10 16:37:41;;;;;;;5.03;1.55;;;;;;;;;;10040058;28;20092;-66
2022/09/10 16:42:34;;;;;;;3.45;1.27;;;;;;;;;;10042069;28;20045;-67
2022/09/10 16:47:28;;;;;;;4.85;1.65;;;;;;;;;;10039929;28;20050;-68
2022/09/10 16:52:23;;;;;;;7.15;2.25;;;;;;;;;;10037862;28;20057;-66
2022/09/10 16:57:18;;;;;;;3.80;1.60;;;;;;;;;;10041854;28;20143;-67
2022/09/10 17:02:12;;;;;;;6.43;1.08;;;;;;;;;;10040647;28;20424;-67
2022/09/10 17:07:06;;;;;;;8.18;1.88;;;;;;;;;;10037175;28;20062;-66
2022/09/10 17:12:01;;;;;;;2.65;1.30;;;;;;;;;;10046000;28;20049;-68
2022/09/10 17:16:55;;;;;;;4.15;1.38;;;;;;;;;;10041469;28;20049;-68
2022/09/10 17:21:51;;;;;;;4.45;1.20;;;;;;;;;;10041651;28;20057;-67
2022/09/10 17:26:45;;;;;;;2.90;1.55;;;;;;;;;;10038875;28;20544;-67
2022/09/10 17:31:40;;;;;;;4.93;1.70;;;;;;;;;;10042183;28;20079;-68
2022/09/10 17:36:37;;;;;;;4.35;1.50;;;;;;;;;;10036347;28;20053;-69
2022/09/10 17:41:32;;;;;;;5.53;1.45;;;;;;;;;;10035836;28;20052;-68
2022/09/10 17:46:29;;;;;;;6.32;1.30;;;;;;;;;;10042802;28;20507;-68
2022/09/10 17:51:27;;;;;;;7.40;1.42;;;;;;;;;;10037353;28;20052;-66
2022/09/10 17:56:22;;;;;;;6.97;1.50;;;;;;;;;;10042972;28;20492;-65
2022/09/10 18:01:22;;;;;;;7.28;1.65;;;;;;;;;;10033766;28;20073;-66
2022/09/10 18:06:17;;;;;;;4.75;1.50;;;;;;;;;;10039031;28;20054;-67
2022/09/10 18:11:16;;;;;;;4.53;1.13;;;;;;;;;;10035155;28;20085;-69
2022/09/10 18:16:15;;;;;;;8.80;1.50;;;;;;;;;;10039132;28;20056;-71
2022/09/10 18:21:18;;;;;;;7.03;1.55;;;;;;;;;;10033849;28;20052;-70
2022/09/10 18:26:19;;;;;;;7.50;2.08;;;;;;;;;;10036840;28;20054;-70
2022/09/10 18:31:25;;;;;;;3.63;1.10;;;;;;;;;;10034989;28;20066;-70
2022/09/10 18:36:29;;;;;;;3.17;1.58;;;;;;;;;;10034072;28;20042;-72
2022/09/10 18:41:37;;;;;;;3.97;1.77;;;;;;;;;;10028240;28;20049;-68
2022/09/10 18:46:39;;;;;;;10.00;4.88;;;;;;;;;;10028563;28;20221;-65
2022/09/10 18:51:43;;;;;;;13.95;6.93;;;;;;;;;;10027992;28;20069;-67
2022/09/10 18:56:48;;;;;;;14.73;7.18;;;;;;;;;;10018940;28;20050;-66
2022/09/10 19:01:54;;;;;;;11.02;5.75;;;;;;;;;;10022830;28;20741;-67
2022/09/10 19:07:00;;;;;;;8.98;5.47;;;;;;;;;;10024961;28;20053;-69
2022/09/10 19:12:07;;;;;;;18.10;5.32;;;;;;;;;;10036907;28;20125;-69
2022/09/10 19:17:14;;;;;;;6.75;4.10;;;;;;;;;;10031826;28;20512;-75
2022/09/10 19:22:09;;;;;;;10.25;4.53;;;;;;;;;;10032699;28;20049;-78
2022/09/10 19:27:09;;;;;;;7.05;3.30;;;;;;;;;;10028176;28;20054;-77
2022/09/10 19:32:13;;;;;;;11.35;2.20;;;;;;;;;;10026360;28;20077;-75
2022/09/10 19:37:16;;;;;;;6.95;2.50;;;;;;;;;;10026965;28;20563;-75
2022/09/10 19:42:20;;;;;;;5.50;1.80;;;;;;;;;;10034878;28;20507;-66
2022/09/10 19:47:23;;;;;;;5.57;1.92;;;;;;;;;;10029077;28;20057;-69
2022/09/10 19:52:31;;;;;;;8.48;2.17;;;;;;;;;;10037449;28;20060;-68
2022/09/10 19:57:37;;;;;;;7.47;2.30;;;;;;;;;;10036730;28;20057;-67
2022/09/10 20:02:39;;;;;;;6.65;2.65;;;;;;;;;;10035437;28;20073;-69
2022/09/10 20:07:44;;;;;;;4.95;2.55;;;;;;;;;;10035402;28;20532;-67
2022/09/10 20:12:48;;;;;;;4.78;2.70;;;;;;;;;;10040162;28;20054;-73
2022/09/10 20:17:50;;;;;;;8.25;3.25;;;;;;;;;;10032671;28;20049;-66
2022/09/10 20:22:55;;;;;;;8.13;3.35;;;;;;;;;;10043231;28;20049;-70
2022/09/10 20:27:57;;;;;;;8.57;3.40;;;;;;;;;;10033139;28;20142;-69
2022/09/10 20:33:02;;;;;;;10.07;3.35;;;;;;;;;;10033793;28;20081;-66
2022/09/10 20:38:06;;;;;;;5.47;3.85;;;;;;;;;;10030788;28;20046;-65
2022/09/10 20:43:04;;;;;;;5.32;2.58;;;;;;;;;;10029532;28;20055;-65
2022/09/10 20:48:00;;;;;;;7.72;3.53;;;;;;;;;;10033218;28;20447;-70
2022/09/10 20:52:57;;;;;;;9.65;3.38;;;;;;;;;;10032534;28;20041;-74
2022/09/10 20:57:52;;;;;;;7.55;3.38;;;;;;;;;;10034585;28;20046;-70
2022/09/10 21:02:47;;;;;;;4.65;3.47;;;;;;;;;;10034757;28;20096;-71
2022/09/10 21:07:40;;;;;;;10.98;5.05;;;;;;;;;;10036754;28;20124;-69
2022/09/10 21:12:34;;;;;;;13.10;3.92;;;;;;;;;;10033372;28;20077;-74
2022/09/10 21:17:29;;;;;;;6.13;3.42;;;;;;;;;;10033040;28;20092;-70
2022/09/10 21:22:23;;;;;;;5.80;3.95;;;;;;;;;;10026053;28;20042;-71
2022/09/10 21:27:17;;;;;;;6.45;3.17;;;;;;;;;;10027439;28;20038;-70
2022/09/10 21:32:12;;;;;;;8.65;3.33;;;;;;;;;;10032450;28;20059;-74
2022/09/10 21:37:05;;;;;;;7.82;2.80;;;;;;;;;;10041437;28;20115;-74
2022/09/10 21:41:59;;;;;;;6.15;3.13;;;;;;;;;;10032155;28;20046;-74
2022/09/10 21:46:52;;;;;;;6.38;2.60;;;;;;;;;;10031927;28;20149;-74
2022/09/10 21:51:47;;;;;;;6.75;3.10;;;;;;;;;;10031430;28;20050;-74
2022/09/10 21:56:42;;;;;;;6.38;2.25;;;;;;;;;;10028609;28;20058;-72
2022/09/10 22:01:36;;;;;;;9.18;2.83;;;;;;;;;;10028793;28;20138;-69
2022/09/10 22:06:37;;;;;;;5.82;2.47;;;;;;;;;;10029826;28;20119;-74
2022/09/10 22:11:34;;;;;;;3.88;2.42;;;;;;;;;;10031210;28;20129;-73
2022/09/10 22:16:29;;;;;;;7.03;2.53;;;;;;;;;;10032156;28;20045;-72
2022/09/10 22:21:24;;;;;;;5.00;2.70;;;;;;;;;;10030410;28;20057;-73
2022/09/10 22:26:20;;;;;;;7.65;2.58;;;;;;;;;;10031967;28;20566;-69
2022/09/10 22:31:17;;;;;;;3.28;2.47;;;;;;;;;;10033050;28;20058;-68
2022/09/10 22:36:30;;;;;;;6.15;2.78;;;;;;;;;;10024314;28;20537;-68
2022/09/10 22:41:24;;;;;;;6.05;2.88;;;;;;;;;;10030527;28;20527;-71
2022/09/10 22:46:19;;;;;;;9.98;3.35;;;;;;;;;;10025577;28;20084;-61
2022/09/10 22:51:17;;;;;;;7.38;2.80;;;;;;;;;;10027967;28;20077;-64
2022/09/10 22:56:16;;;;;;;5.13;2.33;;;;;;;;;;10023010;28;20053;-62
2022/09/10 23:01:16;;;;;;;2.83;1.80;;;;;;;;;;10019415;28;20452;-62
2022/09/10 23:06:32;;;;;;;3.67;2.10;;;;;;;;;;10026136;28;20042;-62
2022/09/10 23:11:28;;;;;;;2.28;2.00;;;;;;;;;;10029886;28;20370;-62
2022/09/10 23:16:22;;;;;;;6.70;3.05;;;;;;;;;;10032222;28;20097;-62
2022/09/10 23:21:18;;;;;;;3.95;2.75;;;;;;;;;;10035735;28;20058;-61
2022/09/10 23:26:12;;;;;;;6.55;2.10;;;;;;;;;;10038176;28;20144;-62
2022/09/10 23:31:12;;;;;;;5.50;2.10;;;;;;;;;;10038957;28;20089;-61
2022/09/10 23:36:07;;;;;;;5.80;2.08;;;;;;;;;;10038660;28;20129;-61
2022/09/10 23:41:02;;;;;;;5.93;2.55;;;;;;;;;;10032914;28;20057;-61
2022/09/10 23:45:57;;;;;;;6.00;2.30;;;;;;;;;;10042045;28;20056;-62
2022/09/10 23:50:56;;;;;;;7.57;2.53;;;;;;;;;;10030510;28;20054;-61
2022/09/10 23:55:52;;;;;;;8.02;2.60;;;;;;;;;;10034096;28;20088;-61
